Portland, Maine
Current Conditions -  °F | °C
As of 8:51 PM on Sunday 21 Dec 2014 (Local Time) from KPWM Reporting Station
Overcast Overcast  
Wind Chill: 26°   Ceiling: 6000
Heat Index: 31°   Visibility: 10mi
Dew Point: 24°   Wind: 5mph
Humidity: 76%   Direction: 360°N
Pressure: 30.37"   Gusts: NA
Location:  43.66°N, 70.26°W
Report Text: KPWM 220151Z 36004KT 10SM SCT045 OVC060 M01/M04 A3037 RMK AO2 SLP287 T10061044
Loading
Personal Weather Stations






























Interactive Weather Map New forecast layout! Learn more

10-Day Weather Forecast

Advertisements
Track Severe Weather on mobile